sensor_id;sensor_type;location;lat;lon;timestamp;temperature;humidity
26982;DHT22;14533;50.848;4.380;2022-07-29T00:01:26;21.00;95.20
26982;DHT22;14533;50.848;4.380;2022-07-29T00:03:52;20.90;95.40
26982;DHT22;14533;50.848;4.380;2022-07-29T00:06:17;21.00;95.30
26982;DHT22;14533;50.848;4.380;2022-07-29T00:08:43;21.00;95.30
26982;DHT22;14533;50.848;4.380;2022-07-29T00:11:08;21.00;95.70
26982;DHT22;14533;50.848;4.380;2022-07-29T00:13:34;21.00;95.40
26982;DHT22;14533;50.848;4.380;2022-07-29T00:16:00;21.00;95.40
26982;DHT22;14533;50.848;4.380;2022-07-29T00:18:25;20.90;95.50
26982;DHT22;14533;50.848;4.380;2022-07-29T00:20:51;20.90;95.40
26982;DHT22;14533;50.848;4.380;2022-07-29T00:23:16;20.90;95.90
26982;DHT22;14533;50.848;4.380;2022-07-29T00:25:42;20.90;95.50
26982;DHT22;14533;50.848;4.380;2022-07-29T00:28:08;20.90;95.60
26982;DHT22;14533;50.848;4.380;2022-07-29T00:30:33;20.90;95.70
26982;DHT22;14533;50.848;4.380;2022-07-29T00:32:59;21.00;95.50
26982;DHT22;14533;50.848;4.380;2022-07-29T00:35:24;20.80;95.60
26982;DHT22;14533;50.848;4.380;2022-07-29T00:38:09;20.90;95.90
26982;DHT22;14533;50.848;4.380;2022-07-29T00:40:35;20.70;96.10
26982;DHT22;14533;50.848;4.380;2022-07-29T00:43:00;20.70;96.30
26982;DHT22;14533;50.848;4.380;2022-07-29T00:45:27;20.70;96.40
26982;DHT22;14533;50.848;4.380;2022-07-29T00:47:52;20.70;96.20
26982;DHT22;14533;50.848;4.380;2022-07-29T00:50:18;20.60;96.40
26982;DHT22;14533;50.848;4.380;2022-07-29T00:52:44;20.50;96.70
26982;DHT22;14533;50.848;4.380;2022-07-29T00:55:14;20.50;97.00
26982;DHT22;14533;50.848;4.380;2022-07-29T00:57:42;20.50;97.10
26982;DHT22;14533;50.848;4.380;2022-07-29T01:00:10;20.50;97.20
26982;DHT22;14533;50.848;4.380;2022-07-29T01:02:36;20.50;97.20
26982;DHT22;14533;50.848;4.380;2022-07-29T01:05:04;20.50;97.20
26982;DHT22;14533;50.848;4.380;2022-07-29T01:07:32;20.40;97.50
26982;DHT22;14533;50.848;4.380;2022-07-29T01:09:59;20.40;97.60
26982;DHT22;14533;50.848;4.380;2022-07-29T01:12:26;20.30;97.90
26982;DHT22;14533;50.848;4.380;2022-07-29T01:14:53;20.30;98.10
26982;DHT22;14533;50.848;4.380;2022-07-29T01:20:25;20.40;98.10
26982;DHT22;14533;50.848;4.380;2022-07-29T01:28:31;20.20;98.60
26982;DHT22;14533;50.848;4.380;2022-07-29T01:30:58;20.20;98.90
26982;DHT22;14533;50.848;4.380;2022-07-29T01:33:26;20.10;98.90
26982;DHT22;14533;50.848;4.380;2022-07-29T01:36:14;20.10;99.20
26982;DHT22;14533;50.848;4.380;2022-07-29T01:38:42;20.10;99.20
26982;DHT22;14533;50.848;4.380;2022-07-29T01:41:15;20.10;99.30
26982;DHT22;14533;50.848;4.380;2022-07-29T01:43:51;20.00;99.40
26982;DHT22;14533;50.848;4.380;2022-07-29T01:46:33;19.90;99.70
26982;DHT22;14533;50.848;4.380;2022-07-29T01:49:10;20.00;99.90
26982;DHT22;14533;50.848;4.380;2022-07-29T01:51:44;20.00;99.90
26982;DHT22;14533;50.848;4.380;2022-07-29T01:56:45;19.90;99.90
26982;DHT22;14533;50.848;4.380;2022-07-29T01:59:12;19.80;99.90
26982;DHT22;14533;50.848;4.380;2022-07-29T02:01:39;19.80;99.90
26982;DHT22;14533;50.848;4.380;2022-07-29T02:04:08;19.70;99.90
26982;DHT22;14533;50.848;4.380;2022-07-29T02:06:37;19.60;99.90
26982;DHT22;14533;50.848;4.380;2022-07-29T02:09:04;19.60;99.90
26982;DHT22;14533;50.848;4.380;2022-07-29T02:11:33;19.60;99.90
26982;DHT22;14533;50.848;4.380;2022-07-29T02:14:01;19.60;99.90
26982;DHT22;14533;50.848;4.380;2022-07-29T02:16:30;19.50;99.90
26982;DHT22;14533;50.848;4.380;2022-07-29T02:18:58;19.50;99.90
26982;DHT22;14533;50.848;4.380;2022-07-29T02:21:27;19.50;99.90
26982;DHT22;14533;50.848;4.380;2022-07-29T02:23:54;19.50;99.90
26982;DHT22;14533;50.848;4.380;2022-07-29T02:26:23;19.50;99.90
26982;DHT22;14533;50.848;4.380;2022-07-29T02:28:52;19.50;99.90
26982;DHT22;14533;50.848;4.380;2022-07-29T02:31:21;19.60;99.90
26982;DHT22;14533;50.848;4.380;2022-07-29T02:33:48;19.50;99.90
26982;DHT22;14533;50.848;4.380;2022-07-29T02:36:15;19.50;99.90
26982;DHT22;14533;50.848;4.380;2022-07-29T02:38:42;19.40;99.90
26982;DHT22;14533;50.848;4.380;2022-07-29T02:41:24;19.40;99.90
26982;DHT22;14533;50.848;4.380;2022-07-29T02:43:56;19.40;99.90
26982;DHT22;14533;50.848;4.380;2022-07-29T02:46:30;19.40;99.90
26982;DHT22;14533;50.848;4.380;2022-07-29T02:49:09;19.30;99.90
26982;DHT22;14533;50.848;4.380;2022-07-29T02:57:08;19.30;99.90
26982;DHT22;14533;50.848;4.380;2022-07-29T02:59:36;19.20;99.90
26982;DHT22;14533;50.848;4.380;2022-07-29T03:02:07;19.20;99.90
26982;DHT22;14533;50.848;4.380;2022-07-29T03:04:34;19.10;99.90
26982;DHT22;14533;50.848;4.380;2022-07-29T03:07:01;19.10;99.90
26982;DHT22;14533;50.848;4.380;2022-07-29T03:09:27;19.10;99.90
26982;DHT22;14533;50.848;4.380;2022-07-29T03:11:54;19.10;99.90
26982;DHT22;14533;50.848;4.380;2022-07-29T03:14:21;19.10;99.90
26982;DHT22;14533;50.848;4.380;2022-07-29T03:16:48;19.10;99.90
26982;DHT22;14533;50.848;4.380;2022-07-29T03:19:14;19.00;99.90
26982;DHT22;14533;50.848;4.380;2022-07-29T03:21:40;19.10;99.90
26982;DHT22;14533;50.848;4.380;2022-07-29T03:24:06;19.00;99.90
26982;DHT22;14533;50.848;4.380;2022-07-29T03:26:31;19.00;99.90
26982;DHT22;14533;50.848;4.380;2022-07-29T03:28:57;19.00;99.90
26982;DHT22;14533;50.848;4.380;2022-07-29T03:31:23;18.90;99.90
26982;DHT22;14533;50.848;4.380;2022-07-29T03:33:48;18.90;99.90
26982;DHT22;14533;50.848;4.380;2022-07-29T03:36:14;18.80;99.90
26982;DHT22;14533;50.848;4.380;2022-07-29T03:38:42;18.80;99.90
26982;DHT22;14533;50.848;4.380;2022-07-29T03:41:10;18.80;99.90
26982;DHT22;14533;50.848;4.380;2022-07-29T03:43:38;18.80;99.90
26982;DHT22;14533;50.848;4.380;2022-07-29T03:46:07;18.70;99.90
26982;DHT22;14533;50.848;4.380;2022-07-29T03:48:36;18.60;99.90
26982;DHT22;14533;50.848;4.380;2022-07-29T03:51:03;18.60;99.90
26982;DHT22;14533;50.848;4.380;2022-07-29T03:53:29;18.60;99.90
26982;DHT22;14533;50.848;4.380;2022-07-29T03:55:58;18.70;99.90
26982;DHT22;14533;50.848;4.380;2022-07-29T03:58:26;18.70;99.90
26982;DHT22;14533;50.848;4.380;2022-07-29T04:00:54;18.70;99.90
26982;DHT22;14533;50.848;4.380;2022-07-29T04:03:20;18.70;99.90
26982;DHT22;14533;50.848;4.380;2022-07-29T04:05:59;18.80;99.90
26982;DHT22;14533;50.848;4.380;2022-07-29T04:08:25;18.80;99.90
26982;DHT22;14533;50.848;4.380;2022-07-29T04:10:51;18.80;99.90
26982;DHT22;14533;50.848;4.380;2022-07-29T04:13:18;18.70;99.90
26982;DHT22;14533;50.848;4.380;2022-07-29T04:15:44;18.70;99.90
26982;DHT22;14533;50.848;4.380;2022-07-29T04:18:09;18.70;99.90
26982;DHT22;14533;50.848;4.380;2022-07-29T04:20:35;18.70;99.90
26982;DHT22;14533;50.848;4.380;2022-07-29T04:23:01;18.60;99.90
26982;DHT22;14533;50.848;4.380;2022-07-29T04:25:26;18.60;99.90
26982;DHT22;14533;50.848;4.380;2022-07-29T04:27:52;18.60;99.90
26982;DHT22;14533;50.848;4.380;2022-07-29T04:30:27;18.60;99.90
26982;DHT22;14533;50.848;4.380;2022-07-29T04:32:53;18.50;99.90
26982;DHT22;14533;50.848;4.380;2022-07-29T04:35:19;18.40;99.90
26982;DHT22;14533;50.848;4.380;2022-07-29T04:37:45;18.50;99.90
26982;DHT22;14533;50.848;4.380;2022-07-29T04:40:11;18.60;99.90
26982;DHT22;14533;50.848;4.380;2022-07-29T04:42:37;18.60;99.90
26982;DHT22;14533;50.848;4.380;2022-07-29T04:45:03;18.70;99.90
26982;DHT22;14533;50.848;4.380;2022-07-29T04:47:29;18.80;99.90
26982;DHT22;14533;50.848;4.380;2022-07-29T04:49:54;19.00;99.90
26982;DHT22;14533;50.848;4.380;2022-07-29T04:52:21;19.00;99.90
26982;DHT22;14533;50.848;4.380;2022-07-29T04:54:47;19.00;99.90
26982;DHT22;14533;50.848;4.380;2022-07-29T04:57:13;18.80;99.90
26982;DHT22;14533;50.848;4.380;2022-07-29T04:59:38;18.90;99.90
26982;DHT22;14533;50.848;4.380;2022-07-29T05:02:04;19.00;99.90
26982;DHT22;14533;50.848;4.380;2022-07-29T05:04:30;18.80;99.90
26982;DHT22;14533;50.848;4.380;2022-07-29T05:06:55;18.80;99.90
26982;DHT22;14533;50.848;4.380;2022-07-29T05:09:21;18.60;99.90
26982;DHT22;14533;50.848;4.380;2022-07-29T05:11:46;18.60;99.90
26982;DHT22;14533;50.848;4.380;2022-07-29T05:14:12;18.60;99.90
26982;DHT22;14533;50.848;4.380;2022-07-29T05:16:38;18.70;99.90
26982;DHT22;14533;50.848;4.380;2022-07-29T05:19:05;18.70;99.90
26982;DHT22;14533;50.848;4.380;2022-07-29T05:21:31;18.70;99.90
26982;DHT22;14533;50.848;4.380;2022-07-29T05:23:57;18.60;99.90
26982;DHT22;14533;50.848;4.380;2022-07-29T05:26:22;18.70;99.90
26982;DHT22;14533;50.848;4.380;2022-07-29T05:28:48;18.70;99.90
26982;DHT22;14533;50.848;4.380;2022-07-29T05:31:14;18.80;99.90
26982;DHT22;14533;50.848;4.380;2022-07-29T05:33:40;19.00;99.90
26982;DHT22;14533;50.848;4.380;2022-07-29T05:36:06;19.10;99.90
26982;DHT22;14533;50.848;4.380;2022-07-29T05:38:36;19.20;99.90
26982;DHT22;14533;50.848;4.380;2022-07-29T05:41:02;19.40;99.90
26982;DHT22;14533;50.848;4.380;2022-07-29T05:43:29;19.40;99.90
26982;DHT22;14533;50.848;4.380;2022-07-29T05:45:55;19.60;99.90
26982;DHT22;14533;50.848;4.380;2022-07-29T05:48:21;19.60;99.90
26982;DHT22;14533;50.848;4.380;2022-07-29T05:50:46;19.60;99.90
26982;DHT22;14533;50.848;4.380;2022-07-29T05:53:12;19.60;99.90
26982;DHT22;14533;50.848;4.380;2022-07-29T05:55:37;19.60;99.90
26982;DHT22;14533;50.848;4.380;2022-07-29T05:58:03;19.80;99.90
26982;DHT22;14533;50.848;4.380;2022-07-29T06:00:29;20.30;99.90
26982;DHT22;14533;50.848;4.380;2022-07-29T06:02:55;20.80;99.90
26982;DHT22;14533;50.848;4.380;2022-07-29T06:05:22;21.10;99.90
26982;DHT22;14533;50.848;4.380;2022-07-29T06:07:47;22.10;99.90
26982;DHT22;14533;50.848;4.380;2022-07-29T06:10:13;24.00;97.50
26982;DHT22;14533;50.848;4.380;2022-07-29T06:12:38;25.60;92.70
26982;DHT22;14533;50.848;4.380;2022-07-29T06:15:05;26.70;90.00
26982;DHT22;14533;50.848;4.380;2022-07-29T06:17:31;27.90;83.60
26982;DHT22;14533;50.848;4.380;2022-07-29T06:19:57;28.70;78.90
26982;DHT22;14533;50.848;4.380;2022-07-29T06:22:22;29.50;75.70
26982;DHT22;14533;50.848;4.380;2022-07-29T06:24:49;30.20;72.40
26982;DHT22;14533;50.848;4.380;2022-07-29T06:27:15;30.10;68.80
26982;DHT22;14533;50.848;4.380;2022-07-29T06:29:42;29.80;70.30
26982;DHT22;14533;50.848;4.380;2022-07-29T06:32:07;29.60;71.20
26982;DHT22;14533;50.848;4.380;2022-07-29T06:34:35;29.80;70.10
26982;DHT22;14533;50.848;4.380;2022-07-29T06:37:05;30.20;69.10
26982;DHT22;14533;50.848;4.380;2022-07-29T06:39:31;31.10;66.70
26982;DHT22;14533;50.848;4.380;2022-07-29T06:41:56;31.90;64.00
26982;DHT22;14533;50.848;4.380;2022-07-29T06:44:22;32.00;62.30
26982;DHT22;14533;50.848;4.380;2022-07-29T06:46:47;31.80;62.00
26982;DHT22;14533;50.848;4.380;2022-07-29T06:49:15;32.60;61.00
26982;DHT22;14533;50.848;4.380;2022-07-29T06:51:41;32.90;58.50
26982;DHT22;14533;50.848;4.380;2022-07-29T06:54:06;32.50;59.20
26982;DHT22;14533;50.848;4.380;2022-07-29T06:56:33;32.70;58.10
26982;DHT22;14533;50.848;4.380;2022-07-29T06:59:02;32.40;58.60
26982;DHT22;14533;50.848;4.380;2022-07-29T07:01:27;32.20;58.20
26982;DHT22;14533;50.848;4.380;2022-07-29T07:03:53;31.30;58.60
26982;DHT22;14533;50.848;4.380;2022-07-29T07:06:19;28.40;64.90
26982;DHT22;14533;50.848;4.380;2022-07-29T07:08:44;27.50;70.20
26982;DHT22;14533;50.848;4.380;2022-07-29T07:11:10;26.30;74.20
26982;DHT22;14533;50.848;4.380;2022-07-29T07:13:35;25.30;78.60
26982;DHT22;14533;50.848;4.380;2022-07-29T07:16:02;25.00;81.60
26982;DHT22;14533;50.848;4.380;2022-07-29T07:18:28;24.90;82.40
26982;DHT22;14533;50.848;4.380;2022-07-29T07:20:53;24.40;84.80
26982;DHT22;14533;50.848;4.380;2022-07-29T07:23:19;24.00;87.00
26982;DHT22;14533;50.848;4.380;2022-07-29T07:25:44;23.60;90.00
26982;DHT22;14533;50.848;4.380;2022-07-29T07:28:10;23.60;90.70
26982;DHT22;14533;50.848;4.380;2022-07-29T07:30:36;24.00;90.10
26982;DHT22;14533;50.848;4.380;2022-07-29T07:33:02;24.80;87.00
26982;DHT22;14533;50.848;4.380;2022-07-29T07:35:27;25.00;86.30
26982;DHT22;14533;50.848;4.380;2022-07-29T07:37:55;25.70;83.20
26982;DHT22;14533;50.848;4.380;2022-07-29T07:40:21;26.90;80.30
26982;DHT22;14533;50.848;4.380;2022-07-29T07:42:46;27.20;78.90
26982;DHT22;14533;50.848;4.380;2022-07-29T07:45:12;27.80;77.60
26982;DHT22;14533;50.848;4.380;2022-07-29T07:47:39;29.10;73.00
26982;DHT22;14533;50.848;4.380;2022-07-29T07:50:07;30.90;67.60
26982;DHT22;14533;50.848;4.380;2022-07-29T07:52:33;31.30;64.40
26982;DHT22;14533;50.848;4.380;2022-07-29T07:54:59;32.60;60.90
26982;DHT22;14533;50.848;4.380;2022-07-29T07:57:26;33.10;59.60
26982;DHT22;14533;50.848;4.380;2022-07-29T07:59:52;33.10;59.20
26982;DHT22;14533;50.848;4.380;2022-07-29T08:02:17;34.30;57.50
26982;DHT22;14533;50.848;4.380;2022-07-29T08:04:43;34.50;56.70
26982;DHT22;14533;50.848;4.380;2022-07-29T08:07:08;34.20;56.60
26982;DHT22;14533;50.848;4.380;2022-07-29T08:09:34;34.40;56.40
26982;DHT22;14533;50.848;4.380;2022-07-29T08:12:00;34.40;56.20
26982;DHT22;14533;50.848;4.380;2022-07-29T08:14:29;35.00;54.70
26982;DHT22;14533;50.848;4.380;2022-07-29T08:16:55;34.30;53.80
26982;DHT22;14533;50.848;4.380;2022-07-29T08:19:21;33.10;55.90
26982;DHT22;14533;50.848;4.380;2022-07-29T08:21:46;32.20;57.00
26982;DHT22;14533;50.848;4.380;2022-07-29T08:24:12;32.20;58.00
26982;DHT22;14533;50.848;4.380;2022-07-29T08:26:56;33.00;57.90
26982;DHT22;14533;50.848;4.380;2022-07-29T08:29:21;33.50;56.80
26982;DHT22;14533;50.848;4.380;2022-07-29T08:31:47;34.20;56.10
26982;DHT22;14533;50.848;4.380;2022-07-29T08:34:13;34.40;55.90
26982;DHT22;14533;50.848;4.380;2022-07-29T08:36:38;34.80;54.30
26982;DHT22;14533;50.848;4.380;2022-07-29T08:39:04;34.70;53.30
26982;DHT22;14533;50.848;4.380;2022-07-29T08:41:30;34.50;54.40
26982;DHT22;14533;50.848;4.380;2022-07-29T08:43:56;34.80;54.00
26982;DHT22;14533;50.848;4.380;2022-07-29T08:46:22;35.10;54.00
26982;DHT22;14533;50.848;4.380;2022-07-29T08:48:48;35.20;52.60
26982;DHT22;14533;50.848;4.380;2022-07-29T08:51:16;34.50;52.50
26982;DHT22;14533;50.848;4.380;2022-07-29T08:53:43;32.60;55.50
26982;DHT22;14533;50.848;4.380;2022-07-29T08:56:13;31.10;58.00
26982;DHT22;14533;50.848;4.380;2022-07-29T08:58:39;30.30;60.10
26982;DHT22;14533;50.848;4.380;2022-07-29T09:01:06;30.50;60.60
26982;DHT22;14533;50.848;4.380;2022-07-29T09:03:34;30.70;59.40
26982;DHT22;14533;50.848;4.380;2022-07-29T09:06:02;31.20;59.10
26982;DHT22;14533;50.848;4.380;2022-07-29T09:08:28;31.80;58.10
26982;DHT22;14533;50.848;4.380;2022-07-29T09:10:55;32.50;58.00
26982;DHT22;14533;50.848;4.380;2022-07-29T09:13:22;32.10;57.20
26982;DHT22;14533;50.848;4.380;2022-07-29T09:15:48;32.10;57.60
26982;DHT22;14533;50.848;4.380;2022-07-29T09:21:00;33.60;55.20
26982;DHT22;14533;50.848;4.380;2022-07-29T09:26:37;34.60;53.30
26982;DHT22;14533;50.848;4.380;2022-07-29T09:31:37;35.00;53.50
26982;DHT22;14533;50.848;4.380;2022-07-29T09:34:03;34.90;52.70
26982;DHT22;14533;50.848;4.380;2022-07-29T09:36:29;34.00;52.50
26982;DHT22;14533;50.848;4.380;2022-07-29T09:39:00;33.10;54.40
26982;DHT22;14533;50.848;4.380;2022-07-29T09:41:26;32.60;55.10
26982;DHT22;14533;50.848;4.380;2022-07-29T09:43:57;31.40;56.80
26982;DHT22;14533;50.848;4.380;2022-07-29T09:46:23;30.70;58.10
26982;DHT22;14533;50.848;4.380;2022-07-29T09:49:09;30.80;58.60
26982;DHT22;14533;50.848;4.380;2022-07-29T09:51:35;30.30;58.70
26982;DHT22;14533;50.848;4.380;2022-07-29T09:54:01;30.00;59.70
26982;DHT22;14533;50.848;4.380;2022-07-29T09:56:42;30.60;59.50
26982;DHT22;14533;50.848;4.380;2022-07-29T09:59:08;31.10;59.00
26982;DHT22;14533;50.848;4.380;2022-07-29T10:01:34;31.70;58.20
26982;DHT22;14533;50.848;4.380;2022-07-29T10:04:01;32.10;57.60
26982;DHT22;14533;50.848;4.380;2022-07-29T10:06:27;32.70;57.20
26982;DHT22;14533;50.848;4.380;2022-07-29T10:08:53;33.20;55.80
26982;DHT22;14533;50.848;4.380;2022-07-29T10:11:19;33.40;54.50
26982;DHT22;14533;50.848;4.380;2022-07-29T10:13:47;33.20;54.90
26982;DHT22;14533;50.848;4.380;2022-07-29T10:16:14;33.50;54.60
26982;DHT22;14533;50.848;4.380;2022-07-29T10:18:42;33.20;53.90
26982;DHT22;14533;50.848;4.380;2022-07-29T10:21:09;33.20;53.50
26982;DHT22;14533;50.848;4.380;2022-07-29T10:23:36;33.20;53.80
26982;DHT22;14533;50.848;4.380;2022-07-29T10:26:03;33.50;54.60
26982;DHT22;14533;50.848;4.380;2022-07-29T10:28:30;33.40;53.30
26982;DHT22;14533;50.848;4.380;2022-07-29T10:31:02;33.50;53.60
26982;DHT22;14533;50.848;4.380;2022-07-29T10:44:18;32.40;53.60
26982;DHT22;14533;50.848;4.380;2022-07-29T10:46:46;31.80;54.50
26982;DHT22;14533;50.848;4.380;2022-07-29T10:49:38;31.70;55.60
26982;DHT22;14533;50.848;4.380;2022-07-29T10:52:20;31.90;54.10
26982;DHT22;14533;50.848;4.380;2022-07-29T10:54:48;32.10;53.90
26982;DHT22;14533;50.848;4.380;2022-07-29T11:07:33;32.20;53.40
26982;DHT22;14533;50.848;4.380;2022-07-29T11:15:10;31.90;54.00
26982;DHT22;14533;50.848;4.380;2022-07-29T11:20:40;32.30;52.80
26982;DHT22;14533;50.848;4.380;2022-07-29T11:23:28;32.10;53.80
26982;DHT22;14533;50.848;4.380;2022-07-29T11:26:13;32.10;53.60
26982;DHT22;14533;50.848;4.380;2022-07-29T11:28:49;31.70;54.30
26982;DHT22;14533;50.848;4.380;2022-07-29T11:31:20;31.70;54.90
26982;DHT22;14533;50.848;4.380;2022-07-29T11:33:57;30.80;54.60
26982;DHT22;14533;50.848;4.380;2022-07-29T11:36:22;30.30;55.40
26982;DHT22;14533;50.848;4.380;2022-07-29T11:38:48;30.00;56.40
26982;DHT22;14533;50.848;4.380;2022-07-29T11:43:54;29.00;57.90
26982;DHT22;14533;50.848;4.380;2022-07-29T11:49:24;29.40;57.60
26982;DHT22;14533;50.848;4.380;2022-07-29T11:51:54;29.90;57.20
26982;DHT22;14533;50.848;4.380;2022-07-29T11:54:33;30.40;55.90
26982;DHT22;14533;50.848;4.380;2022-07-29T11:56:59;30.60;55.70
26982;DHT22;14533;50.848;4.380;2022-07-29T11:59:26;31.00;54.70
26982;DHT22;14533;50.848;4.380;2022-07-29T12:01:59;30.00;55.50
26982;DHT22;14533;50.848;4.380;2022-07-29T12:04:25;29.80;56.60
26982;DHT22;14533;50.848;4.380;2022-07-29T12:06:53;30.30;56.90
26982;DHT22;14533;50.848;4.380;2022-07-29T12:09:19;30.30;55.70
26982;DHT22;14533;50.848;4.380;2022-07-29T12:11:46;30.60;55.70
26982;DHT22;14533;50.848;4.380;2022-07-29T12:14:28;31.00;53.70
26982;DHT22;14533;50.848;4.380;2022-07-29T12:16:54;31.00;53.10
26982;DHT22;14533;50.848;4.380;2022-07-29T12:19:20;30.50;53.80
26982;DHT22;14533;50.848;4.380;2022-07-29T12:21:47;30.80;54.20
26982;DHT22;14533;50.848;4.380;2022-07-29T12:24:13;31.20;53.60
26982;DHT22;14533;50.848;4.380;2022-07-29T12:26:54;30.90;54.10
26982;DHT22;14533;50.848;4.380;2022-07-29T12:29:20;30.60;54.70
26982;DHT22;14533;50.848;4.380;2022-07-29T12:31:46;30.50;55.00
26982;DHT22;14533;50.848;4.380;2022-07-29T12:34:15;30.50;55.20
26982;DHT22;14533;50.848;4.380;2022-07-29T12:36:42;29.90;54.90
26982;DHT22;14533;50.848;4.380;2022-07-29T12:39:08;29.80;55.40
26982;DHT22;14533;50.848;4.380;2022-07-29T12:41:35;29.80;55.50
26982;DHT22;14533;50.848;4.380;2022-07-29T12:44:01;29.70;54.90
26982;DHT22;14533;50.848;4.380;2022-07-29T12:46:26;29.70;55.40
26982;DHT22;14533;50.848;4.380;2022-07-29T12:48:53;29.80;55.30
26982;DHT22;14533;50.848;4.380;2022-07-29T12:51:37;29.60;55.30
26982;DHT22;14533;50.848;4.380;2022-07-29T12:56:28;29.00;56.30
26982;DHT22;14533;50.848;4.380;2022-07-29T12:58:54;28.90;56.70
26982;DHT22;14533;50.848;4.380;2022-07-29T13:01:20;29.00;57.10
26982;DHT22;14533;50.848;4.380;2022-07-29T13:03:58;28.60;57.50
26982;DHT22;14533;50.848;4.380;2022-07-29T13:06:33;28.70;57.60
26982;DHT22;14533;50.848;4.380;2022-07-29T13:09:13;28.90;57.80
26982;DHT22;14533;50.848;4.380;2022-07-29T13:11:42;29.00;57.60
26982;DHT22;14533;50.848;4.380;2022-07-29T13:17:07;29.30;57.20
26982;DHT22;14533;50.848;4.380;2022-07-29T13:19:37;29.20;57.00
26982;DHT22;14533;50.848;4.380;2022-07-29T13:22:03;29.20;57.20
26982;DHT22;14533;50.848;4.380;2022-07-29T13:24:29;29.70;56.90
26982;DHT22;14533;50.848;4.380;2022-07-29T13:26:55;30.00;56.40
26982;DHT22;14533;50.848;4.380;2022-07-29T13:29:21;30.20;55.80
26982;DHT22;14533;50.848;4.380;2022-07-29T13:31:46;30.50;55.40
26982;DHT22;14533;50.848;4.380;2022-07-29T13:34:12;31.10;54.70
26982;DHT22;14533;50.848;4.380;2022-07-29T13:36:37;31.30;54.30
26982;DHT22;14533;50.848;4.380;2022-07-29T13:39:03;31.10;54.00
26982;DHT22;14533;50.848;4.380;2022-07-29T13:41:29;30.80;54.00
26982;DHT22;14533;50.848;4.380;2022-07-29T13:43:55;30.70;54.30
26982;DHT22;14533;50.848;4.380;2022-07-29T13:46:20;30.60;54.90
26982;DHT22;14533;50.848;4.380;2022-07-29T13:48:46;30.60;54.20
26982;DHT22;14533;50.848;4.380;2022-07-29T13:51:12;30.80;54.10
26982;DHT22;14533;50.848;4.380;2022-07-29T13:53:37;31.00;54.40
26982;DHT22;14533;50.848;4.380;2022-07-29T13:56:03;30.90;54.10
26982;DHT22;14533;50.848;4.380;2022-07-29T13:58:31;30.50;54.20
26982;DHT22;14533;50.848;4.380;2022-07-29T14:00:58;30.20;55.10
26982;DHT22;14533;50.848;4.380;2022-07-29T14:03:23;30.40;55.70
26982;DHT22;14533;50.848;4.380;2022-07-29T14:05:49;30.50;54.30
26982;DHT22;14533;50.848;4.380;2022-07-29T14:08:15;29.90;54.10
26982;DHT22;14533;50.848;4.380;2022-07-29T14:10:41;30.00;54.10
26982;DHT22;14533;50.848;4.380;2022-07-29T14:13:06;29.80;53.60
26982;DHT22;14533;50.848;4.380;2022-07-29T14:15:32;29.90;53.70
26982;DHT22;14533;50.848;4.380;2022-07-29T14:17:57;30.10;52.30
26982;DHT22;14533;50.848;4.380;2022-07-29T14:20:23;30.30;52.80
26982;DHT22;14533;50.848;4.380;2022-07-29T14:22:48;30.30;52.10
26982;DHT22;14533;50.848;4.380;2022-07-29T14:25:14;30.30;52.30
26982;DHT22;14533;50.848;4.380;2022-07-29T14:27:40;30.30;52.90
26982;DHT22;14533;50.848;4.380;2022-07-29T14:30:06;29.80;54.70
26982;DHT22;14533;50.848;4.380;2022-07-29T14:32:32;29.50;55.30
26982;DHT22;14533;50.848;4.380;2022-07-29T14:34:57;29.70;55.50
26982;DHT22;14533;50.848;4.380;2022-07-29T14:37:23;29.70;55.00
26982;DHT22;14533;50.848;4.380;2022-07-29T14:39:48;29.80;55.30
26982;DHT22;14533;50.848;4.380;2022-07-29T14:42:14;30.00;54.60
26982;DHT22;14533;50.848;4.380;2022-07-29T14:44:40;30.20;53.80
26982;DHT22;14533;50.848;4.380;2022-07-29T14:47:06;29.80;54.40
26982;DHT22;14533;50.848;4.380;2022-07-29T14:49:31;29.80;54.30
26982;DHT22;14533;50.848;4.380;2022-07-29T14:51:57;29.70;54.30
26982;DHT22;14533;50.848;4.380;2022-07-29T14:54:23;29.70;54.40
26982;DHT22;14533;50.848;4.380;2022-07-29T14:56:48;29.90;55.20
26982;DHT22;14533;50.848;4.380;2022-07-29T14:59:16;29.90;55.60
26982;DHT22;14533;50.848;4.380;2022-07-29T15:01:42;29.70;56.00
26982;DHT22;14533;50.848;4.380;2022-07-29T15:04:08;29.80;56.00
26982;DHT22;14533;50.848;4.380;2022-07-29T15:06:33;30.20;55.10
26982;DHT22;14533;50.848;4.380;2022-07-29T15:08:59;30.60;54.40
26982;DHT22;14533;50.848;4.380;2022-07-29T15:11:25;30.30;54.20
26982;DHT22;14533;50.848;4.380;2022-07-29T15:13:50;29.90;55.00
26982;DHT22;14533;50.848;4.380;2022-07-29T15:16:16;29.60;56.10
26982;DHT22;14533;50.848;4.380;2022-07-29T15:18:42;29.80;56.30
26982;DHT22;14533;50.848;4.380;2022-07-29T15:21:07;30.20;55.90
26982;DHT22;14533;50.848;4.380;2022-07-29T15:23:33;30.60;55.90
26982;DHT22;14533;50.848;4.380;2022-07-29T15:26:02;30.70;54.90
26982;DHT22;14533;50.848;4.380;2022-07-29T15:28:28;30.50;55.00
26982;DHT22;14533;50.848;4.380;2022-07-29T15:30:53;30.20;55.40
26982;DHT22;14533;50.848;4.380;2022-07-29T15:33:19;30.20;55.60
26982;DHT22;14533;50.848;4.380;2022-07-29T15:35:45;30.00;55.60
26982;DHT22;14533;50.848;4.380;2022-07-29T15:38:10;29.70;54.80
26982;DHT22;14533;50.848;4.380;2022-07-29T15:40:40;29.30;54.70
26982;DHT22;14533;50.848;4.380;2022-07-29T15:43:08;29.00;55.40
26982;DHT22;14533;50.848;4.380;2022-07-29T15:45:38;29.00;55.60
26982;DHT22;14533;50.848;4.380;2022-07-29T15:48:05;29.00;55.60
26982;DHT22;14533;50.848;4.380;2022-07-29T15:50:32;28.80;55.70
26982;DHT22;14533;50.848;4.380;2022-07-29T15:52:58;28.70;56.20
26982;DHT22;14533;50.848;4.380;2022-07-29T15:55:24;28.60;57.00
26982;DHT22;14533;50.848;4.380;2022-07-29T15:57:49;28.60;56.20
26982;DHT22;14533;50.848;4.380;2022-07-29T16:00:15;28.10;57.10
26982;DHT22;14533;50.848;4.380;2022-07-29T16:02:43;28.20;57.40
26982;DHT22;14533;50.848;4.380;2022-07-29T16:05:09;28.20;57.40
26982;DHT22;14533;50.848;4.380;2022-07-29T16:07:35;28.20;57.20
26982;DHT22;14533;50.848;4.380;2022-07-29T16:10:00;28.20;57.00
26982;DHT22;14533;50.848;4.380;2022-07-29T16:12:26;28.30;56.50
26982;DHT22;14533;50.848;4.380;2022-07-29T16:14:51;28.40;56.60
26982;DHT22;14533;50.848;4.380;2022-07-29T16:17:18;28.30;56.30
26982;DHT22;14533;50.848;4.380;2022-07-29T16:19:43;28.20;56.70
26982;DHT22;14533;50.848;4.380;2022-07-29T16:22:10;28.20;56.90
26982;DHT22;14533;50.848;4.380;2022-07-29T16:24:35;28.10;56.90
26982;DHT22;14533;50.848;4.380;2022-07-29T16:27:01;27.90;58.20
26982;DHT22;14533;50.848;4.380;2022-07-29T16:29:27;27.60;59.20
26982;DHT22;14533;50.848;4.380;2022-07-29T16:31:53;27.60;60.00
26982;DHT22;14533;50.848;4.380;2022-07-29T16:34:18;27.70;60.00
26982;DHT22;14533;50.848;4.380;2022-07-29T16:36:44;27.60;59.60